createdAt,value
2022-10-17T00:02:16.279Z,73.51
2022-10-17T00:07:47.802Z,73.47
2022-10-17T00:13:18.920Z,73.50
2022-10-17T00:18:50.143Z,73.37
2022-10-17T00:24:20.744Z,73.31
2022-10-17T00:29:52.347Z,73.19
2022-10-17T00:35:23.514Z,72.95
2022-10-17T00:46:34.660Z,72.86
2022-10-17T00:52:12.916Z,72.75
2022-10-17T00:57:45.904Z,72.52
2022-10-17T01:03:17.337Z,72.35
2022-10-17T01:08:48.363Z,72.35
2022-10-17T01:14:29.152Z,72.27
2022-10-17T01:20:19.120Z,72.67
2022-10-17T01:25:57.371Z,71.92
2022-10-17T01:32:10.619Z,72.29
2022-10-17T01:37:48.909Z,72.27
2022-10-17T01:43:24.889Z,71.99
2022-10-17T01:48:58.809Z,72.05
2022-10-17T01:54:48.743Z,72.23
2022-10-17T02:00:23.749Z,71.83
2022-10-17T02:05:57.006Z,72.01
2022-10-17T02:11:28.549Z,71.82
2022-10-17T02:17:11.595Z,71.87
2022-10-17T02:22:57.816Z,71.66
2022-10-17T02:28:46.149Z,71.70
2022-10-17T02:34:29.622Z,72.07
2022-10-17T02:40:00.948Z,71.69
2022-10-17T02:45:36.261Z,71.54
2022-10-17T02:51:27.115Z,71.74
2022-10-17T02:57:03.742Z,71.86
2022-10-17T03:02:43.671Z,71.45
2022-10-17T03:08:15.411Z,71.63
2022-10-17T03:13:46.639Z,71.40
2022-10-17T03:19:18.141Z,71.16
2022-10-17T03:24:49.431Z,71.50
2022-10-17T03:30:21.152Z,71.02
2022-10-17T03:35:54.865Z,71.31
2022-10-17T03:41:26.462Z,71.11
2022-10-17T03:46:58.861Z,71.42
2022-10-17T03:52:30.295Z,71.23
2022-10-17T03:58:01.547Z,71.37
2022-10-17T04:03:33.704Z,71.14
2022-10-17T04:09:06.346Z,70.79
2022-10-17T04:14:55.551Z,71.24
2022-10-17T04:20:28.389Z,71.08
2022-10-17T04:26:04.813Z,71.08
2022-10-17T04:31:37.464Z,70.96
2022-10-17T04:37:20.393Z,71.15
2022-10-17T04:42:54.279Z,71.02
2022-10-17T04:48:31.518Z,71.07
2022-10-17T04:54:02.690Z,70.93
2022-10-17T04:59:34.944Z,71.06
2022-10-17T05:05:39.193Z,70.85
2022-10-17T05:11:25.985Z,70.95
2022-10-17T05:16:57.520Z,70.51
2022-10-17T05:22:30.621Z,71.12
2022-10-17T05:28:02.255Z,70.96
2022-10-17T05:33:34.484Z,71.10
2022-10-17T05:39:05.833Z,70.82
2022-10-17T05:44:40.011Z,71.74
2022-10-17T05:50:12.645Z,71.28
2022-10-17T05:56:09.469Z,71.13
2022-10-17T06:01:41.524Z,70.94
2022-10-17T06:07:13.529Z,71.15
2022-10-17T06:12:47.164Z,71.31
2022-10-17T06:18:19.271Z,71.06
2022-10-17T06:23:51.513Z,71.15
2022-10-17T06:29:33.368Z,70.41
2022-10-17T06:35:05.281Z,70.65
2022-10-17T06:40:36.724Z,70.67
2022-10-17T06:46:07.989Z,70.56
2022-10-17T06:51:43.500Z,70.63
2022-10-17T06:57:17.964Z,70.62
2022-10-17T07:02:57.280Z,70.33
2022-10-17T07:08:29.050Z,70.61
2022-10-17T07:13:59.947Z,70.09
2022-10-17T07:19:31.638Z,70.35
2022-10-17T07:25:02.785Z,70.43
2022-10-17T07:30:40.236Z,70.45
2022-10-17T07:36:16.087Z,70.41
2022-10-17T07:41:49.577Z,70.62
2022-10-17T07:47:22.152Z,70.48
2022-10-17T07:52:54.482Z,70.63
2022-10-17T07:58:26.245Z,70.66
2022-10-17T08:03:57.382Z,70.81
2022-10-17T08:09:28.302Z,70.64
2022-10-17T08:14:59.192Z,70.67
2022-10-17T08:20:30.171Z,70.94
2022-10-17T08:26:03.479Z,71.31
2022-10-17T08:31:34.361Z,71.01
2022-10-17T08:37:05.375Z,70.87
2022-10-17T08:42:46.743Z,71.07
2022-10-17T08:48:19.699Z,70.89
2022-10-17T08:54:06.008Z,70.94
2022-10-17T08:59:37.127Z,70.84
2022-10-17T09:05:35.473Z,70.97
2022-10-17T09:11:25.209Z,71.21
2022-10-17T09:17:37.808Z,71.21
2022-10-17T09:23:20.603Z,71.05
2022-10-17T09:28:59.490Z,71.12
2022-10-17T09:34:32.764Z,71.25
2022-10-17T09:40:07.575Z,71.24
2022-10-17T09:45:44.666Z,71.03
2022-10-17T09:51:25.692Z,71.13
2022-10-17T09:57:04.659Z,71.09
2022-10-17T10:02:41.297Z,70.98
2022-10-17T10:08:17.728Z,71.35
2022-10-17T10:13:49.922Z,71.22
2022-10-17T10:19:33.368Z,71.05
2022-10-17T10:25:08.952Z,70.89
2022-10-17T10:30:40.145Z,70.80
2022-10-17T10:36:11.756Z,70.83
2022-10-17T10:41:47.764Z,70.66
2022-10-17T10:47:29.013Z,70.63
2022-10-17T10:53:37.313Z,70.66
2022-10-17T10:59:08.525Z,70.71
2022-10-17T11:05:11.180Z,70.42
2022-10-17T11:10:52.526Z,70.57
2022-10-17T11:16:29.511Z,70.36
2022-10-17T11:22:24.012Z,70.46
2022-10-17T11:28:02.315Z,70.69
2022-10-17T11:33:45.420Z,70.52
2022-10-17T11:39:29.890Z,70.94
2022-10-17T11:45:08.255Z,70.91
2022-10-17T11:56:41.872Z,71.41
2022-10-17T12:02:30.683Z,71.30
2022-10-17T12:08:07.766Z,71.31
2022-10-17T12:13:41.473Z,70.98
2022-10-17T12:19:22.434Z,71.22
2022-10-17T12:25:02.621Z,71.32
2022-10-17T12:30:34.906Z,71.55
2022-10-17T12:36:27.076Z,71.24
2022-10-17T12:41:58.055Z,71.58
2022-10-17T12:47:38.562Z,71.39
2022-10-17T12:53:18.535Z,71.24
2022-10-17T12:58:51.822Z,71.24
2022-10-17T13:04:22.893Z,71.20
2022-10-17T13:09:54.084Z,71.06
2022-10-17T13:15:25.602Z,71.15
2022-10-17T13:20:58.927Z,71.25
2022-10-17T13:26:30.018Z,71.28
2022-10-17T13:32:04.300Z,71.10
2022-10-17T13:37:36.403Z,71.33
2022-10-17T13:43:19.489Z,71.15
2022-10-17T13:48:50.773Z,70.98
2022-10-17T13:54:44.573Z,71.16
2022-10-17T14:00:21.408Z,71.50
2022-10-17T14:06:12.795Z,71.47
2022-10-17T14:11:44.985Z,71.10
2022-10-17T14:17:25.741Z,71.43
2022-10-17T14:23:22.072Z,71.19
2022-10-17T14:28:52.035Z,71.34
2022-10-17T14:34:28.501Z,71.46
2022-10-17T14:40:01.427Z,71.23
2022-10-17T14:45:37.420Z,71.59
2022-10-17T14:51:17.871Z,71.27
2022-10-17T14:56:52.793Z,71.58
2022-10-17T15:02:25.715Z,71.45
2022-10-17T15:07:56.967Z,70.89
2022-10-17T15:13:29.680Z,70.81
2022-10-17T15:19:02.375Z,70.52
2022-10-17T15:24:33.543Z,70.38
2022-10-17T15:30:06.798Z,70.36
2022-10-17T15:35:38.143Z,70.40
2022-10-17T15:41:11.173Z,70.49
2022-10-17T15:46:43.213Z,70.82
2022-10-17T15:52:14.291Z,70.42
2022-10-17T15:57:46.756Z,70.39
2022-10-17T16:03:18.081Z,70.08
2022-10-17T16:08:50.322Z,70.24
2022-10-17T16:14:21.156Z,69.95
2022-10-17T16:19:52.268Z,69.91
2022-10-17T16:25:29.864Z,70.16
2022-10-17T16:31:01.173Z,70.06
2022-10-17T16:36:32.643Z,69.94
2022-10-17T16:42:03.651Z,69.95
2022-10-17T16:47:34.793Z,69.65
2022-10-17T16:53:06.073Z,70.04
2022-10-17T16:58:37.401Z,70.13
2022-10-17T17:04:09.604Z,69.97
2022-10-17T17:09:40.826Z,69.79
2022-10-17T17:15:11.908Z,70.00
2022-10-17T17:20:43.046Z,70.08
2022-10-17T17:26:17.380Z,70.18
2022-10-17T17:31:48.396Z,70.30
2022-10-17T17:37:19.686Z,70.23
2022-10-17T17:42:50.953Z,70.29
2022-10-17T17:48:22.287Z,70.10
2022-10-17T17:53:54.036Z,70.20
2022-10-17T17:59:25.392Z,70.44
2022-10-17T18:04:56.780Z,70.17
2022-10-17T18:10:29.419Z,70.82
2022-10-17T18:16:01.735Z,70.44
2022-10-17T18:21:33.169Z,70.55
2022-10-17T18:27:04.481Z,70.43
2022-10-17T18:32:35.613Z,70.67
2022-10-17T18:38:06.877Z,70.79
2022-10-17T18:43:39.585Z,70.71
2022-10-17T18:49:12.861Z,70.74
2022-10-17T18:54:43.798Z,70.74
2022-10-17T19:00:15.911Z,70.60
2022-10-17T19:05:47.817Z,70.60
2022-10-17T19:11:22.272Z,70.75
2022-10-17T19:16:53.489Z,70.63
2022-10-17T19:22:24.862Z,70.64
2022-10-17T19:27:58.074Z,70.75
2022-10-17T19:39:10.363Z,70.39
2022-10-17T19:44:41.209Z,70.61
2022-10-17T19:50:12.108Z,70.52
2022-10-17T19:55:43.628Z,70.44
2022-10-17T20:01:17.936Z,70.34
2022-10-17T20:06:49.451Z,70.29
2022-10-17T20:12:20.371Z,70.07
2022-10-17T20:17:51.374Z,70.37
2022-10-17T20:23:23.100Z,70.39
2022-10-17T20:28:54.986Z,70.21
2022-10-17T20:34:26.167Z,70.17
2022-10-17T20:40:22.618Z,70.21
2022-10-17T20:45:51.117Z,70.25
2022-10-17T20:51:23.202Z,69.86
2022-10-17T20:56:55.209Z,70.19
2022-10-17T21:02:26.841Z,69.95
2022-10-17T21:07:57.899Z,69.69
2022-10-17T21:13:29.039Z,69.75
2022-10-17T21:19:00.482Z,70.18
2022-10-17T21:24:31.852Z,69.76
2022-10-17T21:30:03.603Z,70.13
2022-10-17T21:35:34.840Z,69.97
2022-10-17T21:41:08.025Z,69.93
2022-10-17T21:46:39.140Z,69.94
2022-10-17T21:52:10.180Z,69.87
2022-10-17T21:57:41.429Z,69.79
2022-10-17T22:03:15.503Z,69.63
2022-10-17T22:08:46.752Z,69.70
2022-10-17T22:14:19.976Z,69.51
2022-10-17T22:19:51.186Z,69.80
2022-10-17T22:25:22.359Z,69.76
2022-10-17T22:30:53.697Z,69.66
2022-10-17T22:36:25.046Z,69.91
2022-10-17T22:41:56.347Z,69.96
2022-10-17T22:47:27.444Z,69.61
2022-10-17T22:52:58.618Z,69.72
2022-10-17T22:58:31.477Z,69.90
2022-10-17T23:04:02.541Z,69.89
2022-10-17T23:09:33.422Z,69.92
2022-10-17T23:15:05.085Z,69.97
2022-10-17T23:20:36.930Z,69.90
2022-10-17T23:26:10.723Z,69.97
2022-10-17T23:31:41.778Z,70.22
2022-10-17T23:37:12.907Z,70.03
2022-10-17T23:42:44.137Z,69.74
2022-10-17T23:48:14.932Z,69.75
2022-10-17T23:53:45.792Z,69.75
2022-10-17T23:59:16.997Z,69.98
